Terminal Aerodrome Forecast
Issued by NWS Des Moines, IA

Home | Current Version | Previous Version | Text Only | Print | Product List | Glossary On
Versions: 1 2 3 4 5 6 7 8 9 10 11 12 13 14 15 16 17 18
000
FTUS43 KDMX 250743 AAA
TAFALO
TAF AMD
KALO 250743Z 2508/2606 25004KT 3SM BR SKC
      TEMPO 2509/2513 1SM BR
     FM251400 27010KT P6SM SCT120 SCT250
     FM260200 03005KT P6SM SCT120 BKN250=

USA.gov is the U.S. government's official web portal to all federal, state and local government web resources and services.